createdAt,value
2022-10-15T00:00:01.499Z,94.40
2022-10-15T00:02:24.808Z,94.40
2022-10-15T00:04:48.845Z,94.50
2022-10-15T00:07:12.072Z,94.60
2022-10-15T00:09:35.493Z,94.60
2022-10-15T00:11:58.823Z,94.60
2022-10-15T00:14:22.149Z,94.60
2022-10-15T00:16:47.031Z,94.60
2022-10-15T00:19:11.261Z,94.50
2022-10-15T00:21:34.447Z,94.40
2022-10-15T00:23:58.976Z,94.40
2022-10-15T00:26:25.739Z,94.40
2022-10-15T00:28:50.791Z,94.50
2022-10-15T00:31:21.064Z,94.50
2022-10-15T00:33:46.448Z,94.50
2022-10-15T00:36:13.505Z,94.50
2022-10-15T00:38:37.349Z,94.40
2022-10-15T00:41:00.921Z,94.40
2022-10-15T00:43:43.419Z,94.50
2022-10-15T00:46:08.559Z,94.30
2022-10-15T00:48:32.889Z,94.40
2022-10-15T00:50:57.943Z,94.40
2022-10-15T00:53:21.392Z,94.30
2022-10-15T00:55:45.038Z,94.30
2022-10-15T01:00:41.064Z,94.30
2022-10-15T01:03:04.333Z,94.10
2022-10-15T01:05:28.287Z,94.10
2022-10-15T01:07:53.284Z,94.20
2022-10-15T01:10:17.467Z,94.20
2022-10-15T01:13:01.472Z,94.20
2022-10-15T01:15:30.944Z,94.10
2022-10-15T01:17:58.823Z,94.20
2022-10-15T01:20:51.605Z,94.30
2022-10-15T01:24:02.842Z,94.20
2022-10-15T01:27:16.135Z,94.30
2022-10-15T01:30:25.940Z,94.60
2022-10-15T01:33:16.621Z,94.40
2022-10-15T01:35:49.930Z,94.60
2022-10-15T01:38:42.886Z,94.70
2022-10-15T01:41:12.304Z,94.70
2022-10-15T01:43:41.244Z,94.70
2022-10-15T01:46:34.664Z,94.80
2022-10-15T01:49:05.253Z,94.70
2022-10-15T01:51:31.813Z,94.70
2022-10-15T01:53:55.541Z,94.60
2022-10-15T01:56:23.283Z,94.80
2022-10-15T01:58:50.407Z,94.70
2022-10-15T02:01:14.375Z,94.80
2022-10-15T02:03:47.652Z,94.80
2022-10-15T02:06:19.377Z,94.80
2022-10-15T02:08:51.287Z,94.80
2022-10-15T02:11:17.481Z,94.70
2022-10-15T02:13:55.894Z,94.80
2022-10-15T02:16:25.369Z,94.80
2022-10-15T02:18:53.188Z,95.00
2022-10-15T02:21:24.134Z,95.20
2022-10-15T02:23:53.807Z,95.20
2022-10-15T02:26:22.503Z,95.10
2022-10-15T02:28:52.903Z,95.30
2022-10-15T02:31:20.030Z,95.40
2022-10-15T02:33:43.952Z,95.40
2022-10-15T02:36:10.535Z,95.30
2022-10-15T02:38:36.495Z,95.30
2022-10-15T02:41:00.701Z,95.30
2022-10-15T02:43:24.524Z,95.20
2022-10-15T02:45:49.192Z,95.20
2022-10-15T02:48:13.368Z,95.30
2022-10-15T02:50:36.746Z,95.50
2022-10-15T02:53:00.822Z,95.40
2022-10-15T02:55:25.500Z,95.40
2022-10-15T02:57:49.068Z,95.40
2022-10-15T03:00:14.380Z,95.30
2022-10-15T03:02:37.760Z,95.40
2022-10-15T03:05:01.232Z,95.40
2022-10-15T03:07:25.311Z,95.50
2022-10-15T03:09:49.109Z,95.30
2022-10-15T03:12:14.062Z,95.40
2022-10-15T03:14:37.348Z,95.50
2022-10-15T03:17:01.109Z,95.60
2022-10-15T03:19:25.213Z,95.70
2022-10-15T03:21:50.670Z,95.70
2022-10-15T03:24:14.178Z,95.80
2022-10-15T03:26:38.821Z,95.70
2022-10-15T03:29:04.283Z,95.80
2022-10-15T03:31:46.052Z,95.60
2022-10-15T03:34:09.708Z,95.60
2022-10-15T03:36:33.127Z,95.50
2022-10-15T03:38:57.405Z,95.40
2022-10-15T03:41:20.607Z,95.40
2022-10-15T03:43:45.711Z,95.40
2022-10-15T03:46:10.661Z,95.40
2022-10-15T03:48:39.478Z,95.40
2022-10-15T03:51:03.101Z,95.40
2022-10-15T03:53:26.899Z,95.50
2022-10-15T03:55:50.650Z,95.70
2022-10-15T03:58:14.091Z,95.60
2022-10-15T04:00:45.800Z,95.60
2022-10-15T04:03:10.702Z,95.50
2022-10-15T04:05:33.953Z,95.40
2022-10-15T04:08:01.381Z,95.40
2022-10-15T04:10:28.654Z,95.30
2022-10-15T04:12:52.160Z,95.30
2022-10-15T04:15:15.851Z,95.40
2022-10-15T04:17:46.360Z,95.40
2022-10-15T04:20:12.622Z,95.40
2022-10-15T04:22:39.863Z,95.60
2022-10-15T04:25:04.302Z,95.50
2022-10-15T04:27:27.667Z,95.50
2022-10-15T04:29:59.499Z,95.50
2022-10-15T04:32:23.039Z,95.50
2022-10-15T04:34:47.621Z,95.60
2022-10-15T04:37:13.900Z,95.60
2022-10-15T04:39:37.224Z,95.60
2022-10-15T04:42:00.773Z,95.60
2022-10-15T04:44:27.494Z,95.60
2022-10-15T04:46:53.186Z,95.70
2022-10-15T04:49:33.418Z,95.70
2022-10-15T04:51:59.367Z,95.80
2022-10-15T04:54:32.840Z,95.80
2022-10-15T04:56:59.604Z,95.70
2022-10-15T04:59:23.840Z,95.70
2022-10-15T05:02:17.170Z,95.70
2022-10-15T05:04:44.569Z,95.60
2022-10-15T05:07:08.160Z,95.50
2022-10-15T05:09:36.975Z,95.50
2022-10-15T05:12:01.164Z,95.30
2022-10-15T05:14:25.611Z,95.30
2022-10-15T05:17:01.737Z,95.20
2022-10-15T05:19:24.983Z,94.90
2022-10-15T05:24:20.042Z,94.80
2022-10-15T05:26:50.689Z,94.90
2022-10-15T05:29:14.057Z,94.70
2022-10-15T05:31:37.292Z,94.70
2022-10-15T05:34:10.365Z,94.60
2022-10-15T05:36:41.414Z,94.70
2022-10-15T05:39:10.325Z,94.80
2022-10-15T05:41:38.243Z,94.90
2022-10-15T05:44:02.879Z,94.70
2022-10-15T05:46:27.871Z,94.70
2022-10-15T05:48:51.575Z,94.70
2022-10-15T05:51:14.873Z,94.70
2022-10-15T05:53:39.676Z,94.90
2022-10-15T05:56:05.439Z,95.00
2022-10-15T05:58:33.455Z,95.00
2022-10-15T06:01:03.292Z,94.90
2022-10-15T06:03:29.001Z,94.90
2022-10-15T06:05:52.662Z,95.10
2022-10-15T06:08:16.232Z,95.20
2022-10-15T06:10:39.868Z,95.20
2022-10-15T06:13:03.266Z,95.20
2022-10-15T06:15:26.953Z,95.20
2022-10-15T06:17:54.153Z,95.30
2022-10-15T06:20:17.416Z,95.40
2022-10-15T06:22:40.906Z,95.30
2022-10-15T06:25:04.143Z,95.20
2022-10-15T06:27:28.340Z,95.00
2022-10-15T06:29:51.595Z,95.00
2022-10-15T06:32:14.813Z,94.90
2022-10-15T06:34:40.747Z,94.90
2022-10-15T06:37:04.103Z,95.00
2022-10-15T06:39:27.858Z,95.10
2022-10-15T06:41:51.157Z,95.30
2022-10-15T06:44:14.445Z,95.40
2022-10-15T06:46:39.407Z,95.50
2022-10-15T06:49:02.767Z,95.40
2022-10-15T06:51:27.490Z,95.50
2022-10-15T06:53:50.704Z,95.60
2022-10-15T06:56:13.995Z,95.60
2022-10-15T06:58:38.577Z,95.60
2022-10-15T07:01:02.797Z,95.50
2022-10-15T07:03:26.209Z,95.50
2022-10-15T07:05:49.516Z,95.60
2022-10-15T07:08:18.405Z,95.50
2022-10-15T07:10:42.744Z,95.60
2022-10-15T07:13:06.018Z,95.70
2022-10-15T07:15:29.528Z,95.70
2022-10-15T07:17:56.633Z,95.80
2022-10-15T07:20:24.173Z,95.70
2022-10-15T07:22:48.718Z,95.60
2022-10-15T07:25:13.340Z,95.70
2022-10-15T07:27:36.917Z,95.60
2022-10-15T07:30:00.157Z,95.50
2022-10-15T07:32:23.710Z,95.70
2022-10-15T07:34:47.061Z,95.30
2022-10-15T07:37:10.388Z,95.50
2022-10-15T07:39:36.482Z,94.80
2022-10-15T07:42:04.028Z,94.80
2022-10-15T07:44:27.308Z,94.40
2022-10-15T07:46:50.581Z,94.60
2022-10-15T07:49:13.846Z,94.00
2022-10-15T07:51:37.103Z,94.20
2022-10-15T07:54:00.362Z,94.10
2022-10-15T07:56:23.675Z,94.10
2022-10-15T07:58:51.892Z,94.20
2022-10-15T08:01:15.239Z,94.00
2022-10-15T08:03:39.229Z,93.50
2022-10-15T08:06:03.802Z,93.80
2022-10-15T08:08:27.016Z,94.10
2022-10-15T08:10:50.526Z,94.00
2022-10-15T08:13:13.876Z,92.80
2022-10-15T08:15:42.570Z,92.90
2022-10-15T08:18:05.768Z,92.50
2022-10-15T08:20:28.939Z,92.90
2022-10-15T08:22:52.204Z,92.50
2022-10-15T08:25:15.541Z,92.70
2022-10-15T08:27:38.807Z,92.90
2022-10-15T08:30:02.639Z,92.80
2022-10-15T08:32:27.839Z,92.90
2022-10-15T08:34:51.072Z,92.90
2022-10-15T08:39:42.556Z,92.20
2022-10-15T08:42:16.220Z,92.20
2022-10-15T08:44:44.036Z,92.30
2022-10-15T08:47:15.159Z,90.60
2022-10-15T08:49:48.862Z,90.40
2022-10-15T08:52:22.680Z,89.90
2022-10-15T08:54:46.307Z,89.90
2022-10-15T08:57:20.684Z,90.30
2022-10-15T08:59:55.149Z,89.90
2022-10-15T09:02:24.456Z,90.40
2022-10-15T09:04:56.580Z,90.40
2022-10-15T09:07:34.078Z,89.80
2022-10-15T09:10:07.331Z,88.90
2022-10-15T09:12:46.430Z,88.80
2022-10-15T09:15:15.157Z,89.60
2022-10-15T09:17:38.557Z,88.50
2022-10-15T09:20:08.344Z,88.80
2022-10-15T09:22:33.399Z,88.40
2022-10-15T09:24:57.993Z,87.70
2022-10-15T09:27:30.299Z,89.10
2022-10-15T09:30:05.393Z,88.80
2022-10-15T09:32:36.852Z,87.20
2022-10-15T09:35:12.921Z,88.00
2022-10-15T09:37:44.648Z,88.30
2022-10-15T09:40:40.680Z,88.70
2022-10-15T09:43:06.067Z,88.00
2022-10-15T09:45:29.955Z,87.90
2022-10-15T09:48:00.125Z,87.80
2022-10-15T09:50:26.051Z,87.90
2022-10-15T09:53:08.419Z,87.40
2022-10-15T09:55:41.617Z,88.10
2022-10-15T09:58:08.805Z,87.90
2022-10-15T10:00:59.327Z,87.80
2022-10-15T10:03:34.361Z,88.30
2022-10-15T10:06:06.151Z,88.80
2022-10-15T10:08:37.122Z,87.80
2022-10-15T10:11:03.141Z,87.10
2022-10-15T10:13:30.003Z,87.50
2022-10-15T10:15:58.350Z,87.10
2022-10-15T10:18:24.966Z,88.50
2022-10-15T10:20:58.766Z,88.30
2022-10-15T10:23:31.977Z,89.30
2022-10-15T10:25:57.948Z,90.00
2022-10-15T10:28:29.106Z,91.00
2022-10-15T10:31:03.580Z,91.90
2022-10-15T10:33:31.020Z,91.90
2022-10-15T10:35:54.669Z,91.90
2022-10-15T10:38:28.044Z,92.90
2022-10-15T10:40:56.560Z,92.30
2022-10-15T10:43:25.815Z,92.40
2022-10-15T10:45:58.762Z,92.40
2022-10-15T10:48:25.380Z,92.50
2022-10-15T10:50:49.440Z,92.30
2022-10-15T10:53:25.759Z,92.30
2022-10-15T10:55:49.837Z,92.70
2022-10-15T10:58:23.456Z,92.50
2022-10-15T11:00:52.382Z,92.70
2022-10-15T11:03:28.781Z,93.10
2022-10-15T11:06:06.599Z,93.10
2022-10-15T11:08:36.488Z,92.90
2022-10-15T11:11:10.160Z,92.50
2022-10-15T11:13:49.667Z,92.40
2022-10-15T11:16:23.616Z,92.10
2022-10-15T11:19:13.664Z,92.10
2022-10-15T11:22:01.050Z,91.80
2022-10-15T11:24:42.912Z,91.50
2022-10-15T11:27:28.548Z,91.50
2022-10-15T11:29:59.801Z,91.20
2022-10-15T11:33:05.378Z,91.40
2022-10-15T11:35:53.015Z,91.00
2022-10-15T11:38:26.554Z,91.00
2022-10-15T11:41:12.964Z,91.10
2022-10-15T11:43:55.704Z,91.20
2022-10-15T11:46:29.468Z,91.50
2022-10-15T11:49:12.955Z,91.60
2022-10-15T11:51:54.742Z,91.40
2022-10-15T11:54:28.178Z,91.50
2022-10-15T11:56:59.783Z,91.50
2022-10-15T11:59:36.201Z,91.10
2022-10-15T12:02:04.883Z,91.40
2022-10-15T12:04:35.463Z,91.70
2022-10-15T12:07:04.313Z,91.90
2022-10-15T12:09:31.911Z,92.20
2022-10-15T12:12:04.678Z,92.10
2022-10-15T12:14:32.962Z,91.00
2022-10-15T12:17:06.283Z,91.00
2022-10-15T12:19:38.731Z,91.50
2022-10-15T12:22:11.237Z,90.90
2022-10-15T12:24:54.282Z,90.70
2022-10-15T12:27:25.019Z,90.00
2022-10-15T12:29:51.643Z,90.10
2022-10-15T12:32:25.211Z,89.50
2022-10-15T12:34:55.638Z,89.80
2022-10-15T12:37:20.624Z,90.60
2022-10-15T12:39:52.473Z,90.50
2022-10-15T12:42:28.923Z,90.80
2022-10-15T12:44:53.202Z,91.30
2022-10-15T12:47:16.436Z,91.40
2022-10-15T12:50:05.425Z,91.10
2022-10-15T12:53:01.681Z,90.70
2022-10-15T12:55:32.370Z,90.60
2022-10-15T12:58:31.963Z,90.60
2022-10-15T13:00:55.386Z,90.40
2022-10-15T13:03:42.098Z,89.80
2022-10-15T13:06:17.678Z,90.00
2022-10-15T13:08:46.458Z,90.60
2022-10-15T13:11:22.071Z,90.50
2022-10-15T13:13:47.924Z,90.50
2022-10-15T13:16:12.610Z,90.40
2022-10-15T13:18:36.254Z,90.70
2022-10-15T13:23:34.839Z,90.00
2022-10-15T13:26:19.975Z,90.10
2022-10-15T13:28:44.681Z,89.40
2022-10-15T13:31:16.580Z,89.00
2022-10-15T13:33:42.231Z,88.60
2022-10-15T13:36:10.163Z,89.20
2022-10-15T13:38:34.486Z,89.20
2022-10-15T13:40:58.007Z,88.40
2022-10-15T13:43:23.644Z,88.90
2022-10-15T13:45:51.200Z,88.70
2022-10-15T13:48:23.195Z,88.90
2022-10-15T13:50:48.558Z,88.00
2022-10-15T13:53:20.793Z,88.60
2022-10-15T13:55:48.568Z,88.30
2022-10-15T13:58:23.568Z,88.60
2022-10-15T14:00:59.330Z,88.50
2022-10-15T14:03:26.757Z,88.80
2022-10-15T14:05:52.665Z,89.70
2022-10-15T14:08:28.323Z,89.80
2022-10-15T14:10:53.960Z,90.00
2022-10-15T14:13:18.282Z,91.80
2022-10-15T14:16:08.273Z,92.90
2022-10-15T14:18:39.348Z,93.00
2022-10-15T14:21:03.589Z,91.60
2022-10-15T14:23:28.552Z,91.70
2022-10-15T14:25:58.335Z,93.00
2022-10-15T14:28:24.021Z,93.10
2022-10-15T14:30:48.092Z,91.10
2022-10-15T14:33:31.303Z,92.60
2022-10-15T14:36:09.500Z,92.90
2022-10-15T14:38:33.121Z,93.40
2022-10-15T14:41:06.337Z,93.40
2022-10-15T14:43:35.060Z,93.50
2022-10-15T14:46:02.641Z,93.80
2022-10-15T14:48:29.077Z,93.30
2022-10-15T14:50:52.592Z,93.40
2022-10-15T14:53:22.768Z,93.20
2022-10-15T14:55:50.872Z,92.90
2022-10-15T14:58:21.684Z,93.40
2022-10-15T15:00:47.155Z,93.50
2022-10-15T15:03:16.760Z,93.40
2022-10-15T15:05:48.686Z,93.40
2022-10-15T15:08:12.031Z,93.90
2022-10-15T15:10:36.707Z,93.50
2022-10-15T15:12:59.951Z,93.40
2022-10-15T15:15:26.207Z,93.40
2022-10-15T15:17:49.584Z,93.00
2022-10-15T15:20:13.741Z,92.20
2022-10-15T15:22:38.395Z,92.90
2022-10-15T15:25:05.288Z,92.80
2022-10-15T15:27:37.002Z,92.80
2022-10-15T15:30:00.875Z,93.00
2022-10-15T15:32:25.607Z,92.80
2022-10-15T15:34:50.950Z,93.30
2022-10-15T15:37:16.891Z,93.20
2022-10-15T15:39:40.123Z,93.30
2022-10-15T15:42:03.299Z,93.10
2022-10-15T15:44:27.997Z,93.10
2022-10-15T15:46:55.114Z,92.90
2022-10-15T15:49:19.191Z,92.80
2022-10-15T15:51:42.885Z,93.30
2022-10-15T15:54:09.717Z,92.40
2022-10-15T15:56:34.830Z,92.60
2022-10-15T15:58:58.188Z,93.30
2022-10-15T16:01:22.904Z,92.90
2022-10-15T16:03:46.483Z,92.60
2022-10-15T16:06:10.351Z,93.00
2022-10-15T16:08:34.021Z,92.90
2022-10-15T16:10:57.220Z,91.70
2022-10-15T16:13:20.487Z,91.80
2022-10-15T16:15:43.818Z,91.80
2022-10-15T16:18:09.263Z,92.40
2022-10-15T16:20:35.760Z,92.70
2022-10-15T16:22:59.053Z,92.70
2022-10-15T16:25:25.194Z,92.50
2022-10-15T16:27:51.713Z,92.30
2022-10-15T16:30:15.285Z,92.60
2022-10-15T16:32:38.639Z,92.40
2022-10-15T16:35:03.247Z,91.60
2022-10-15T16:37:26.736Z,92.00
2022-10-15T16:39:50.306Z,92.60
2022-10-15T16:42:14.631Z,92.10
2022-10-15T16:44:37.927Z,93.10
2022-10-15T16:47:01.267Z,92.60
2022-10-15T16:49:24.452Z,93.00
2022-10-15T16:51:49.272Z,92.70
2022-10-15T16:54:15.414Z,92.90
2022-10-15T16:56:39.296Z,93.40
2022-10-15T16:59:02.515Z,93.40
2022-10-15T17:01:28.241Z,93.30
2022-10-15T17:03:51.709Z,93.50
2022-10-15T17:06:17.824Z,93.40
2022-10-15T17:08:45.639Z,93.40
2022-10-15T17:11:11.689Z,93.00
2022-10-15T17:13:35.092Z,93.30
2022-10-15T17:16:08.841Z,93.00
2022-10-15T17:18:32.053Z,93.50
2022-10-15T17:20:56.319Z,92.60
2022-10-15T17:23:19.548Z,92.70
2022-10-15T17:25:44.442Z,92.90
2022-10-15T17:28:11.364Z,92.80
2022-10-15T17:30:38.149Z,92.90
2022-10-15T17:33:01.534Z,92.70
2022-10-15T17:35:25.250Z,92.80
2022-10-15T17:37:48.585Z,92.90
2022-10-15T17:40:13.142Z,92.90
2022-10-15T17:42:42.496Z,93.00
2022-10-15T17:45:06.783Z,92.70
2022-10-15T17:47:30.535Z,93.10
2022-10-15T17:49:53.760Z,93.30
2022-10-15T17:52:17.088Z,93.30
2022-10-15T17:54:40.308Z,93.40
2022-10-15T17:57:03.553Z,93.50
2022-10-15T17:59:28.233Z,93.50
2022-10-15T18:01:59.794Z,93.60
2022-10-15T18:04:23.627Z,93.40
2022-10-15T18:06:46.932Z,93.60
2022-10-15T18:09:19.897Z,93.50
2022-10-15T18:11:45.421Z,93.60
2022-10-15T18:14:08.774Z,93.70
2022-10-15T18:16:33.477Z,93.70
2022-10-15T18:18:57.398Z,93.90
2022-10-15T18:21:21.985Z,94.00
2022-10-15T18:23:46.616Z,94.10
2022-10-15T18:26:18.701Z,93.80
2022-10-15T18:28:44.534Z,94.30
2022-10-15T18:31:09.611Z,94.20
2022-10-15T18:33:35.204Z,94.40
2022-10-15T18:36:07.636Z,94.10
2022-10-15T18:38:30.851Z,94.20
2022-10-15T18:40:54.042Z,94.10
2022-10-15T18:43:19.722Z,94.00
2022-10-15T18:45:44.689Z,93.80
2022-10-15T18:48:07.964Z,94.20
2022-10-15T18:50:32.651Z,94.20
2022-10-15T18:52:55.940Z,94.00
2022-10-15T18:55:19.482Z,93.90
2022-10-15T18:57:42.775Z,94.00
2022-10-15T19:00:07.901Z,94.00
2022-10-15T19:02:31.088Z,94.00
2022-10-15T19:04:54.416Z,94.30
2022-10-15T19:07:19.185Z,94.10
2022-10-15T19:09:43.896Z,94.00
2022-10-15T19:12:07.204Z,94.00
2022-10-15T19:14:30.600Z,94.20
2022-10-15T19:16:54.196Z,94.20
2022-10-15T19:19:21.996Z,94.10
2022-10-15T19:21:46.816Z,94.00
2022-10-15T19:24:11.636Z,94.00
2022-10-15T19:26:35.232Z,94.00
2022-10-15T19:28:59.055Z,94.10
2022-10-15T19:31:27.636Z,94.10
2022-10-15T19:33:50.806Z,94.20
2022-10-15T19:36:21.449Z,94.00
2022-10-15T19:38:44.769Z,94.00
2022-10-15T19:41:14.015Z,94.00
2022-10-15T19:43:37.756Z,94.10
2022-10-15T19:46:05.588Z,94.10
2022-10-15T19:48:29.959Z,94.10
2022-10-15T19:50:53.221Z,94.20
2022-10-15T19:53:18.548Z,94.10
2022-10-15T19:55:41.909Z,94.10
2022-10-15T19:58:06.749Z,94.00
2022-10-15T20:00:30.306Z,94.20
2022-10-15T20:02:54.063Z,94.20
2022-10-15T20:05:17.777Z,94.10
2022-10-15T20:07:41.034Z,94.00
2022-10-15T20:10:04.562Z,94.10
2022-10-15T20:12:28.196Z,94.20
2022-10-15T20:14:52.778Z,94.20
2022-10-15T20:17:15.920Z,94.20
2022-10-15T20:19:39.201Z,94.10
2022-10-15T20:22:02.545Z,94.30
2022-10-15T20:24:25.809Z,94.30
2022-10-15T20:26:50.946Z,94.30
2022-10-15T20:29:17.318Z,94.30
2022-10-15T20:31:42.033Z,94.40
2022-10-15T20:34:05.264Z,94.30
2022-10-15T20:36:28.800Z,94.30
2022-10-15T20:38:52.824Z,94.20
2022-10-15T20:41:18.025Z,94.20
2022-10-15T20:43:41.909Z,94.20
2022-10-15T20:46:07.932Z,94.40
2022-10-15T20:48:34.078Z,94.40
2022-10-15T20:50:57.453Z,94.40
2022-10-15T20:53:22.259Z,94.40
2022-10-15T20:55:45.523Z,94.30
2022-10-15T20:58:09.150Z,94.50
2022-10-15T21:00:32.518Z,94.30
2022-10-15T21:02:55.830Z,94.40
2022-10-15T21:05:20.517Z,94.20
2022-10-15T21:07:43.859Z,94.20
2022-10-15T21:10:07.946Z,94.20
2022-10-15T21:12:31.502Z,94.20
2022-10-15T21:14:54.920Z,94.20
2022-10-15T21:17:18.306Z,94.40
2022-10-15T21:19:41.648Z,94.50
2022-10-15T21:22:06.409Z,94.40
2022-10-15T21:24:30.079Z,94.60
2022-10-15T21:26:53.401Z,94.50
2022-10-15T21:29:17.489Z,94.60
2022-10-15T21:31:40.912Z,94.60
2022-10-15T21:34:04.151Z,94.50
2022-10-15T21:36:29.150Z,94.60
2022-10-15T21:38:56.923Z,94.60
2022-10-15T21:41:20.321Z,94.60
2022-10-15T21:43:43.684Z,94.60
2022-10-15T21:46:08.667Z,94.50
2022-10-15T21:48:31.995Z,94.60
2022-10-15T21:50:55.208Z,94.60
2022-10-15T21:53:18.543Z,94.40
2022-10-15T21:55:43.084Z,94.60
2022-10-15T21:58:06.650Z,94.60
2022-10-15T22:00:29.835Z,94.50
2022-10-15T22:02:53.216Z,94.40
2022-10-15T22:05:16.620Z,94.40
2022-10-15T22:07:40.401Z,94.50
2022-10-15T22:10:03.891Z,94.60
2022-10-15T22:12:28.525Z,94.50
2022-10-15T22:14:51.768Z,94.60
2022-10-15T22:17:15.549Z,94.50
2022-10-15T22:19:38.871Z,94.60
2022-10-15T22:22:02.128Z,94.50
2022-10-15T22:24:25.871Z,94.50
2022-10-15T22:26:52.524Z,94.50
2022-10-15T22:29:21.525Z,94.40
2022-10-15T22:31:44.851Z,94.50
2022-10-15T22:34:08.654Z,94.50
2022-10-15T22:36:32.851Z,94.40
2022-10-15T22:38:58.357Z,94.40
2022-10-15T22:41:21.690Z,94.30
2022-10-15T22:43:45.783Z,94.40
2022-10-15T22:46:10.911Z,94.40
2022-10-15T22:48:35.074Z,94.30
2022-10-15T22:50:58.879Z,94.20
2022-10-15T22:53:22.112Z,94.40
2022-10-15T22:55:55.892Z,94.30
2022-10-15T22:58:19.070Z,94.20
2022-10-15T23:00:42.329Z,94.40
2022-10-15T23:03:07.333Z,94.40
2022-10-15T23:05:30.624Z,94.60
2022-10-15T23:07:53.939Z,94.60
2022-10-15T23:10:17.254Z,94.60
2022-10-15T23:12:40.965Z,94.60
2022-10-15T23:15:04.477Z,94.50
2022-10-15T23:17:27.815Z,94.60
2022-10-15T23:19:52.433Z,94.50
2022-10-15T23:22:15.881Z,94.70
2022-10-15T23:24:39.297Z,94.60
2022-10-15T23:27:02.545Z,94.50
2022-10-15T23:29:27.169Z,94.60
2022-10-15T23:31:51.580Z,94.70
2022-10-15T23:34:16.989Z,94.70
2022-10-15T23:36:41.688Z,94.70
2022-10-15T23:39:06.856Z,94.70
2022-10-15T23:41:30.915Z,94.60
2022-10-15T23:43:54.392Z,94.60
2022-10-15T23:46:18.259Z,94.60
2022-10-15T23:48:42.019Z,94.50
2022-10-15T23:51:13.867Z,94.50
2022-10-15T23:53:38.635Z,94.40
2022-10-15T23:56:03.614Z,94.50
2022-10-15T23:58:26.960Z,94.50
